EDDK Airport Information

Runway Information
Runway 06 Length 8067 ft width 148 ft
Elevation 231 ft Threshold 0 ft Heading 64
Runway 24 Length 8067 ft Width 148 ft
Elevation 272 ft Threshold 0 ft Heading 244
Runway 14L Length 12516 ft width 197 ft
Elevation 230 ft Threshold 0 ft Heading 138
Runway 32R Length 12516 ft Width 197 ft
Elevation 302 ft Threshold 0 ft Heading 318
Runway 14R Length 6112 ft width 148 ft
Elevation 221 ft Threshold 0 ft Heading 138
Runway 32L Length 6112 ft Width 148 ft
Elevation 259 ft Threshold 0 ft Heading 318
Airport Frequencies
Type ATIS Name ATIS Frequency 112.15 MHZ
Type CLD Name CLNC DEL Frequency 121.85 MHZ
Type DIR Name DIR Frequency 121.05 MHZ
Type GND Name GND Frequency 121.725 MHZ
Type INFO Name LANGEN INF Frequency 129.875 MHZ
Type MISC Name APRON Frequency 121.95 MHZ
Type POST Name MIL Frequency 136.25 MHZ
Type RDR Name LANGEN RAD Frequency 118.75 MHZ
Type TWR Name TWR Frequency 124.975 MHZ
Airport Navaids
Type VORTAC Name Cola Frequency 108800 KHZ
Type VOR-DME Name Koln/Bonn Frequency 112150 KHZ
Type NDB Name Koln/Bonn Frequency 365 KHZ
Type NDB Name Koln/Bonn Frequency 327 KHZ
Type NDB Name Koln/Bonn Frequency 301 KHZ
Airport Weather Information & NOTAM
ADDS - METARS form results

(1300 UTC 23 February 2019)
Data provider http://aviationweather.gov/metar/data/
 
METAR text: EDDK 231250Z 15014KT 110V180 CAVOK 11/M02 Q1037 NOSIG
Conditions at: EDDK (KOELN/BONN , DE) observed 1250 UTC 23 February 2019
Temperature: 11.0°C (52°F)
Dewpoint: -2.0°C (28°F) [RH = 40%]
Pressure (altimeter): 30.62 inches Hg (1037.0 mb)
Winds: from the SSE (150 degrees) at 16 MPH (14 knots; 7.2 m/s)
Visibility: 6 or more miles (10+ km)
Ceiling: ceiling and visibility are OK
Clouds: unknown
Weather: no significant weather observed at this time

METAR text: EDDK 231220Z 12011KT 090V160 CAVOK 10/M02 Q1038 NOSIG
Conditions at: EDDK (KOELN/BONN , DE) observed 1220 UTC 23 February 2019
Temperature: 10.0°C (50°F)
Dewpoint: -2.0°C (28°F) [RH = 43%]
Pressure (altimeter): 30.65 inches Hg (1038.0 mb)
Winds: from the ESE (120 degrees) at 13 MPH (11 knots; 5.7 m/s)
Visibility: 6 or more miles (10+ km)
Ceiling: ceiling and visibility are OK
Clouds: unknown
Weather: no significant weather observed at this time

Forecast for: EDDK (KOELN/BONN , DE)
Text: TAF EDDK 231100Z 2312/2418 13010KT CAVOK
Forecast period: 1200 to 1600 UTC 23 February 2019
Forecast type: FROM: standard forecast or significant change
Winds: from the SE (130 degrees) at 12 MPH (10 knots; 5.1 m/s)
Visibility: 6 or more miles 10+ km)
Ceiling: unknown
Clouds: missing
Weather: NSW  (no significant weather)
Text: BECMG 2316/2318 12005KT
Forecast period: 1600 UTC 23 February 2019 to 1800 UTC 24 February 2019
Forecast type: BECOMING: Conditions expected to become as follows by 1800 UTC 23 February 2019
Winds: from the ESE (120 degrees) at 6 MPH (5 knots; 2.6 m/s)
Visibility: 6 or more miles 10+ km)
Ceiling: unknown
Clouds: missing
Weather: NSW  (no significant weather)